Blue Ridge, Canada
Current Conditions -  °F | °C
As of 10:00 PM on Wednesday 17 Dec 2014 (Local Time) from CYZU Reporting Station
Haze Haze  
Wind Chill:   Ceiling: Unl
Heat Index:   Visibility: 6mi
Dew Point:   Wind: 2mph
Humidity: 85%   Direction: 220°SW
Pressure: 29.8"   Gusts: NA
Location:  54.12°N, 115.38°W
Report Text: CYZU 180500Z 22002KT 6SM BR SKC M15/M17 A2980 RMK LAST OBS/NEXT 181300Z SLP154
Loading
Personal Weather Stations






























Interactive Weather Map New forecast layout! Learn more

10-Day Weather Forecast

Advertisements
Track Severe Weather on mobile